createdAt,value
2019-03-06T00:02:19.963Z,8.00
2019-03-06T00:04:49.386Z,8.00
2019-03-06T00:07:18.793Z,8.00
2019-03-06T00:09:48.362Z,7.90
2019-03-06T00:12:17.803Z,7.90
2019-03-06T00:14:47.305Z,7.90
2019-03-06T00:17:17.015Z,7.80
2019-03-06T00:19:46.491Z,7.80
2019-03-06T00:22:16.223Z,7.80
2019-03-06T00:24:45.938Z,7.80
2019-03-06T00:27:15.435Z,7.90
2019-03-06T00:29:45.393Z,7.90
2019-03-06T00:32:15.367Z,8.00
2019-03-06T00:34:44.841Z,7.90
2019-03-06T00:37:14.699Z,7.90
2019-03-06T00:39:52.207Z,7.90
2019-03-06T00:42:22.174Z,8.00
2019-03-06T00:44:53.137Z,8.00
2019-03-06T00:47:22.871Z,7.90
2019-03-06T00:49:52.642Z,8.00
2019-03-06T00:52:22.089Z,8.00
2019-03-06T00:54:51.877Z,8.00
2019-03-06T00:57:21.749Z,8.00
2019-03-06T00:59:54.326Z,8.00
2019-03-06T01:02:28.131Z,7.90
2019-03-06T01:05:00.357Z,7.80
2019-03-06T01:07:29.973Z,7.70
2019-03-06T01:09:59.907Z,7.70
2019-03-06T01:12:29.490Z,7.70
2019-03-06T01:14:59.275Z,7.70
2019-03-06T01:17:28.787Z,7.80
2019-03-06T01:19:58.190Z,7.90
2019-03-06T01:22:27.641Z,7.80
2019-03-06T01:24:57.447Z,7.90
2019-03-06T01:27:27.354Z,7.90
2019-03-06T01:29:57.589Z,7.80
2019-03-06T01:32:27.312Z,7.80
2019-03-06T01:35:15.777Z,7.80
2019-03-06T01:37:57.659Z,7.80
2019-03-06T01:40:46.269Z,7.80
2019-03-06T01:43:21.271Z,7.80
2019-03-06T01:45:53.157Z,7.80
2019-03-06T01:48:23.543Z,7.80
2019-03-06T01:50:52.985Z,7.90
2019-03-06T01:53:22.635Z,7.90
2019-03-06T01:55:52.162Z,7.90
2019-03-06T01:58:22.072Z,7.90
2019-03-06T02:00:51.822Z,7.90
2019-03-06T02:03:21.647Z,7.90
2019-03-06T02:05:51.182Z,7.90
2019-03-06T02:08:20.995Z,7.90
2019-03-06T02:10:50.762Z,7.90
2019-03-06T02:13:23.280Z,7.90
2019-03-06T02:15:53.097Z,8.00
2019-03-06T02:18:23.163Z,8.00
2019-03-06T02:20:52.473Z,7.90
2019-03-06T02:23:22.073Z,7.90
2019-03-06T02:25:51.255Z,7.80
2019-03-06T02:28:20.737Z,7.80
2019-03-06T02:30:50.001Z,7.70
2019-03-06T02:33:19.268Z,7.70
2019-03-06T02:35:48.836Z,7.70
2019-03-06T02:38:18.002Z,7.60
2019-03-06T02:40:47.268Z,7.70
2019-03-06T02:43:16.781Z,7.70
2019-03-06T02:45:46.151Z,7.60
2019-03-06T02:48:15.389Z,7.60
2019-03-06T02:50:44.576Z,7.50
2019-03-06T02:53:13.827Z,7.40
2019-03-06T02:55:43.212Z,7.40
2019-03-06T02:58:37.342Z,7.40
2019-03-06T03:01:28.396Z,7.40
2019-03-06T03:04:12.181Z,7.30
2019-03-06T03:06:45.252Z,7.30
2019-03-06T03:09:17.588Z,7.20
2019-03-06T03:11:46.943Z,7.20
2019-03-06T03:14:16.515Z,7.20
2019-03-06T03:16:45.836Z,7.20
2019-03-06T03:19:15.110Z,7.20
2019-03-06T03:21:44.457Z,7.20
2019-03-06T03:24:13.618Z,7.20
2019-03-06T03:26:42.834Z,7.20
2019-03-06T03:29:12.087Z,7.20
2019-03-06T03:31:41.306Z,7.20
2019-03-06T03:34:10.491Z,7.10
2019-03-06T03:36:39.798Z,7.10
2019-03-06T03:39:09.320Z,7.00
2019-03-06T03:41:39.069Z,7.00
2019-03-06T03:44:08.326Z,7.10
2019-03-06T03:46:37.614Z,7.10
2019-03-06T03:49:06.847Z,7.10
2019-03-06T03:51:36.502Z,6.90
2019-03-06T03:54:05.752Z,6.80
2019-03-06T03:56:35.262Z,6.80
2019-03-06T03:59:04.762Z,6.90
2019-03-06T04:01:34.274Z,6.80
2019-03-06T04:04:03.673Z,6.80
2019-03-06T04:06:33.002Z,6.80
2019-03-06T04:09:02.268Z,6.80
2019-03-06T04:11:31.487Z,6.80
2019-03-06T04:14:00.680Z,6.80
2019-03-06T04:16:30.569Z,6.80
2019-03-06T04:19:00.205Z,6.80
2019-03-06T04:21:29.529Z,6.80
2019-03-06T04:23:58.774Z,6.80
2019-03-06T04:26:28.286Z,6.70
2019-03-06T04:28:57.850Z,6.70
2019-03-06T04:31:27.196Z,6.60
2019-03-06T04:33:56.406Z,6.70
2019-03-06T04:36:25.850Z,6.80
2019-03-06T04:38:55.084Z,6.70
2019-03-06T04:41:24.510Z,6.50
2019-03-06T04:43:53.741Z,6.50
2019-03-06T04:46:23.198Z,6.50
2019-03-06T04:48:52.508Z,6.50
2019-03-06T04:51:22.077Z,6.50
2019-03-06T04:53:51.813Z,6.50
2019-03-06T04:56:21.005Z,6.60
2019-03-06T04:58:50.345Z,6.50
2019-03-06T05:01:19.577Z,6.40
2019-03-06T05:03:48.860Z,6.30
2019-03-06T05:06:18.302Z,6.30
2019-03-06T05:08:47.562Z,6.20
2019-03-06T05:11:16.845Z,6.30
2019-03-06T05:13:46.108Z,7.70
2019-03-06T05:16:15.402Z,6.10
2019-03-06T05:18:50.898Z,6.20
2019-03-06T05:21:20.123Z,6.30
2019-03-06T05:23:49.791Z,6.10
2019-03-06T05:26:19.133Z,6.20
2019-03-06T05:28:48.393Z,6.20
2019-03-06T05:31:17.886Z,6.10
2019-03-06T05:33:47.437Z,6.10
2019-03-06T05:36:44.860Z,6.20
2019-03-06T05:39:14.094Z,6.20
2019-03-06T05:41:43.703Z,6.30
2019-03-06T05:44:13.015Z,6.30
2019-03-06T05:46:42.318Z,6.20
2019-03-06T05:49:12.004Z,6.30
2019-03-06T05:51:41.794Z,6.30
2019-03-06T05:54:11.039Z,6.30
2019-03-06T05:56:40.516Z,6.40
2019-03-06T05:59:09.746Z,6.40
2019-03-06T06:01:39.298Z,6.40
2019-03-06T06:04:08.558Z,6.40
2019-03-06T06:06:37.906Z,6.50
2019-03-06T06:09:08.030Z,6.40
2019-03-06T06:11:37.648Z,6.40
2019-03-06T06:14:07.277Z,6.50
2019-03-06T06:16:36.870Z,6.50
2019-03-06T06:19:06.241Z,6.60
2019-03-06T06:21:45.325Z,6.60
2019-03-06T06:24:21.389Z,6.60
2019-03-06T06:26:50.983Z,6.70
2019-03-06T06:29:20.585Z,6.80
2019-03-06T06:31:49.942Z,6.80
2019-03-06T06:34:19.435Z,7.00
2019-03-06T06:36:48.838Z,7.10
2019-03-06T06:39:18.170Z,7.10
2019-03-06T06:41:47.510Z,7.20
2019-03-06T06:44:16.754Z,7.20
2019-03-06T06:46:46.077Z,7.30
2019-03-06T06:49:15.915Z,7.40
2019-03-06T06:52:15.005Z,7.50
2019-03-06T06:55:06.746Z,7.60
2019-03-06T06:58:18.522Z,7.70
2019-03-06T07:01:21.077Z,7.70
2019-03-06T07:04:46.686Z,7.90
2019-03-06T07:07:27.382Z,8.00
2019-03-06T07:10:13.931Z,8.20
2019-03-06T07:13:01.063Z,8.30
2019-03-06T07:15:52.117Z,8.40
2019-03-06T07:18:38.827Z,8.40
2019-03-06T07:21:29.105Z,8.50
2019-03-06T07:24:16.042Z,8.60
2019-03-06T07:26:53.418Z,8.80
2019-03-06T07:29:45.909Z,8.90
2019-03-06T07:32:27.864Z,9.00
2019-03-06T07:35:54.907Z,9.00
2019-03-06T07:38:24.544Z,9.10
2019-03-06T07:40:59.414Z,9.20
2019-03-06T07:43:54.793Z,9.30
2019-03-06T07:46:37.020Z,9.30
2019-03-06T07:49:20.382Z,9.40
2019-03-06T07:52:08.671Z,9.50
2019-03-06T07:54:57.876Z,9.40
2019-03-06T07:57:33.561Z,9.30
2019-03-06T08:00:02.846Z,9.30
2019-03-06T08:02:55.113Z,9.30
2019-03-06T08:05:24.643Z,9.40
2019-03-06T08:07:54.144Z,9.50
2019-03-06T08:10:26.878Z,9.50
2019-03-06T08:13:04.907Z,9.50
2019-03-06T08:15:53.863Z,9.60
2019-03-06T08:18:44.901Z,9.70
2019-03-06T08:21:27.917Z,9.50
2019-03-06T08:24:04.273Z,9.60
2019-03-06T08:26:33.945Z,9.60
2019-03-06T08:29:03.142Z,9.90
2019-03-06T08:31:44.749Z,10.00
2019-03-06T08:34:14.133Z,10.10
2019-03-06T08:36:43.394Z,10.30
2019-03-06T08:39:18.776Z,10.30
2019-03-06T08:41:48.326Z,10.60
2019-03-06T08:44:17.853Z,10.70
2019-03-06T08:47:06.125Z,10.80
2019-03-06T08:49:58.052Z,10.80
2019-03-06T08:52:37.121Z,10.90
2019-03-06T08:55:31.978Z,11.00
2019-03-06T08:58:15.603Z,11.10
2019-03-06T09:01:07.768Z,11.40
2019-03-06T09:04:14.530Z,10.40
2019-03-06T09:06:55.040Z,11.70
2019-03-06T09:09:42.185Z,11.70
2019-03-06T09:12:39.627Z,11.70
2019-03-06T09:15:27.574Z,11.90
2019-03-06T09:18:11.030Z,11.90
2019-03-06T09:21:14.785Z,11.70
2019-03-06T09:24:05.709Z,11.50
2019-03-06T09:26:52.927Z,11.50
2019-03-06T09:29:40.294Z,11.50
2019-03-06T09:32:24.434Z,11.60
2019-03-06T09:35:11.119Z,11.70
2019-03-06T09:38:01.357Z,12.00
2019-03-06T09:40:55.837Z,12.10
2019-03-06T09:43:34.609Z,12.10
2019-03-06T09:46:25.922Z,12.20
2019-03-06T09:49:11.200Z,12.10
2019-03-06T09:51:42.979Z,12.50
2019-03-06T09:54:34.206Z,12.50
2019-03-06T09:57:16.042Z,12.50
2019-03-06T10:00:10.246Z,12.40
2019-03-06T10:02:53.534Z,12.50
2019-03-06T10:05:41.085Z,12.50
2019-03-06T10:08:24.643Z,12.50
2019-03-06T10:10:59.879Z,12.50
2019-03-06T10:13:46.594Z,12.60
2019-03-06T10:16:37.017Z,13.00
2019-03-06T10:19:20.877Z,13.20
2019-03-06T10:21:50.235Z,13.30
2019-03-06T10:24:19.537Z,13.70
2019-03-06T10:26:49.378Z,14.10
2019-03-06T10:29:18.961Z,14.30
2019-03-06T10:31:48.285Z,14.20
2019-03-06T10:34:17.530Z,14.10
2019-03-06T10:36:46.846Z,14.30
2019-03-06T10:39:16.805Z,14.40
2019-03-06T10:41:46.121Z,14.50
2019-03-06T10:44:15.621Z,14.90
2019-03-06T10:46:44.877Z,14.90
2019-03-06T10:49:14.393Z,15.00
2019-03-06T10:51:43.621Z,15.10
2019-03-06T10:54:13.219Z,15.20
2019-03-06T10:56:42.536Z,15.60
2019-03-06T10:59:12.125Z,15.50
2019-03-06T11:01:41.394Z,15.20
2019-03-06T11:04:35.674Z,15.10
2019-03-06T11:07:05.719Z,15.10
2019-03-06T11:09:35.295Z,15.00
2019-03-06T11:12:06.088Z,15.40
2019-03-06T11:14:35.661Z,15.70
2019-03-06T11:17:05.438Z,15.80
2019-03-06T11:19:34.946Z,16.00
2019-03-06T11:22:05.210Z,16.20
2019-03-06T11:24:34.527Z,16.00
2019-03-06T11:27:04.370Z,15.90
2019-03-06T11:29:33.987Z,15.70
2019-03-06T11:32:03.860Z,15.70
2019-03-06T11:34:33.254Z,15.80
2019-03-06T11:37:03.065Z,16.10
2019-03-06T11:39:32.686Z,16.20
2019-03-06T11:42:02.199Z,16.00
2019-03-06T11:44:31.495Z,16.30
2019-03-06T11:47:01.382Z,16.00
2019-03-06T11:49:30.651Z,16.20
2019-03-06T11:51:59.959Z,16.10
2019-03-06T11:54:29.267Z,16.20
2019-03-06T11:56:58.641Z,16.30
2019-03-06T11:59:27.994Z,16.50
2019-03-06T12:01:57.415Z,16.80
2019-03-06T12:04:27.214Z,17.10
2019-03-06T12:06:56.913Z,17.20
2019-03-06T12:09:33.806Z,17.30
2019-03-06T12:12:04.467Z,16.80
2019-03-06T12:14:33.802Z,16.90
2019-03-06T12:17:03.149Z,16.60
2019-03-06T12:19:32.862Z,16.80
2019-03-06T12:22:02.862Z,16.70
2019-03-06T12:24:32.227Z,16.90
2019-03-06T12:27:01.660Z,17.50
2019-03-06T12:29:31.261Z,17.80
2019-03-06T12:32:00.790Z,18.20
2019-03-06T12:34:30.237Z,18.40
2019-03-06T12:36:59.478Z,18.10
2019-03-06T12:39:28.763Z,18.20
2019-03-06T12:41:58.875Z,18.20
2019-03-06T12:44:28.163Z,18.50
2019-03-06T12:46:58.504Z,18.30
2019-03-06T12:49:28.949Z,18.10
2019-03-06T12:51:58.513Z,18.10
2019-03-06T12:54:27.841Z,18.40
2019-03-06T12:56:57.182Z,18.80
2019-03-06T12:59:26.465Z,19.30
2019-03-06T13:01:55.709Z,19.70
2019-03-06T13:04:24.932Z,19.70
2019-03-06T13:06:54.314Z,19.70
2019-03-06T13:09:23.660Z,19.90
2019-03-06T13:11:53.168Z,20.40
2019-03-06T13:14:23.026Z,20.10
2019-03-06T13:16:52.946Z,20.10
2019-03-06T13:19:22.301Z,20.30
2019-03-06T13:21:51.698Z,19.30
2019-03-06T13:24:21.059Z,19.30
2019-03-06T13:26:50.706Z,19.20
2019-03-06T13:29:20.520Z,19.20
2019-03-06T13:31:49.833Z,19.20
2019-03-06T13:34:28.392Z,19.40
2019-03-06T13:36:57.837Z,19.10
2019-03-06T13:39:27.607Z,20.40
2019-03-06T13:41:57.289Z,19.50
2019-03-06T13:44:26.656Z,19.90
2019-03-06T13:46:56.494Z,19.90
2019-03-06T13:49:25.811Z,19.50
2019-03-06T13:51:55.142Z,19.20
2019-03-06T13:54:24.486Z,18.90
2019-03-06T13:56:53.773Z,18.80
2019-03-06T13:59:23.083Z,18.90
2019-03-06T14:01:52.722Z,19.20
2019-03-06T14:04:22.059Z,19.00
2019-03-06T14:06:51.594Z,19.00
2019-03-06T14:09:21.165Z,19.30
2019-03-06T14:11:51.065Z,19.20
2019-03-06T14:14:20.667Z,19.00
2019-03-06T14:16:50.334Z,18.80
2019-03-06T14:19:19.646Z,18.80
2019-03-06T14:21:49.065Z,18.60
2019-03-06T14:24:18.843Z,18.70
2019-03-06T14:26:48.434Z,19.30
2019-03-06T14:29:17.672Z,19.10
2019-03-06T14:31:47.121Z,18.90
2019-03-06T14:34:16.294Z,18.70
2019-03-06T14:36:46.465Z,18.70
2019-03-06T14:39:27.494Z,18.70
2019-03-06T14:41:58.018Z,18.70
2019-03-06T14:44:27.587Z,17.60
2019-03-06T14:46:56.974Z,18.10
2019-03-06T14:49:26.638Z,18.10
2019-03-06T14:51:55.987Z,17.70
2019-03-06T14:54:25.368Z,17.60
2019-03-06T14:56:54.637Z,17.40
2019-03-06T14:59:24.264Z,18.50
2019-03-06T15:01:54.401Z,17.20
2019-03-06T15:04:25.075Z,17.10
2019-03-06T15:06:55.280Z,17.00
2019-03-06T15:12:58.017Z,16.80
2019-03-06T15:15:28.255Z,16.70
2019-03-06T15:17:57.610Z,16.70
2019-03-06T15:20:27.894Z,16.50
2019-03-06T15:22:57.481Z,16.40
2019-03-06T15:25:27.135Z,16.30
2019-03-06T15:27:56.527Z,16.30
2019-03-06T15:30:26.236Z,16.20
2019-03-06T15:32:55.862Z,16.20
2019-03-06T15:35:25.503Z,16.10
2019-03-06T15:37:54.975Z,16.10
2019-03-06T15:40:26.525Z,16.10
2019-03-06T15:42:56.010Z,16.10
2019-03-06T15:45:29.574Z,16.00
2019-03-06T15:47:59.495Z,15.90
2019-03-06T15:50:28.897Z,15.80
2019-03-06T15:52:58.401Z,15.90
2019-03-06T15:55:27.969Z,15.80
2019-03-06T15:57:57.515Z,15.80
2019-03-06T16:00:32.213Z,15.80
2019-03-06T16:03:01.600Z,15.70
2019-03-06T16:05:30.946Z,15.70
2019-03-06T16:08:01.006Z,15.60
2019-03-06T16:10:30.641Z,15.70
2019-03-06T16:12:59.889Z,15.70
2019-03-06T16:15:29.925Z,15.60
2019-03-06T16:18:01.099Z,15.40
2019-03-06T16:20:30.551Z,15.40
2019-03-06T16:22:59.829Z,15.30
2019-03-06T16:25:36.415Z,15.40
2019-03-06T16:28:00.525Z,15.30
2019-03-06T16:30:30.501Z,15.30
2019-03-06T16:32:59.847Z,15.20
2019-03-06T16:35:29.165Z,15.20
2019-03-06T16:37:58.630Z,15.20
2019-03-06T16:40:30.385Z,15.20
2019-03-06T16:42:59.503Z,15.10
2019-03-06T16:45:29.615Z,15.00
2019-03-06T16:48:01.825Z,15.10
2019-03-06T16:50:31.219Z,15.00
2019-03-06T16:53:00.658Z,14.90
2019-03-06T16:55:30.091Z,14.90
2019-03-06T16:57:59.951Z,14.80
2019-03-06T17:00:31.070Z,14.80
2019-03-06T17:03:01.575Z,14.80
2019-03-06T17:05:31.527Z,14.80
2019-03-06T17:08:01.455Z,14.80
2019-03-06T17:10:31.088Z,14.80
2019-03-06T17:13:00.689Z,14.70
2019-03-06T17:15:30.886Z,14.80
2019-03-06T17:18:00.251Z,14.70
2019-03-06T17:20:30.217Z,14.70
2019-03-06T17:22:59.744Z,14.60
2019-03-06T17:25:29.259Z,14.60
2019-03-06T17:27:58.642Z,14.60
2019-03-06T17:30:28.126Z,14.60
2019-03-06T17:32:59.277Z,14.60
2019-03-06T17:35:29.363Z,14.70
2019-03-06T17:37:58.776Z,14.70
2019-03-06T17:40:28.538Z,14.60
2019-03-06T17:42:58.298Z,14.70
2019-03-06T17:45:27.749Z,14.70
2019-03-06T17:47:57.323Z,15.60
2019-03-06T17:50:27.118Z,14.60
2019-03-06T17:52:56.956Z,14.70
2019-03-06T17:55:26.495Z,14.60
2019-03-06T17:57:55.894Z,14.60
2019-03-06T18:00:44.531Z,14.60
2019-03-06T18:03:17.076Z,14.60
2019-03-06T18:05:46.365Z,14.60
2019-03-06T18:08:15.946Z,14.60
2019-03-06T18:10:45.370Z,14.50
2019-03-06T18:13:14.705Z,14.50
2019-03-06T18:15:44.561Z,15.60
2019-03-06T18:18:14.164Z,14.50
2019-03-06T18:20:43.438Z,14.50
2019-03-06T18:23:12.745Z,14.50
2019-03-06T18:25:41.990Z,14.50
2019-03-06T18:28:11.819Z,14.50
2019-03-06T18:30:41.181Z,14.50
2019-03-06T18:33:10.490Z,14.50
2019-03-06T18:35:46.780Z,14.30
2019-03-06T18:38:47.137Z,14.30
2019-03-06T18:41:17.139Z,14.30
2019-03-06T18:43:52.522Z,14.20
2019-03-06T18:46:51.735Z,14.20
2019-03-06T18:49:31.548Z,14.10
2019-03-06T18:52:51.843Z,14.10
2019-03-06T18:58:44.326Z,14.10
2019-03-06T19:01:17.789Z,14.10
2019-03-06T19:04:20.789Z,14.00
2019-03-06T19:06:56.945Z,14.00
2019-03-06T19:09:26.947Z,14.00
2019-03-06T19:12:00.379Z,14.00
2019-03-06T19:14:33.882Z,14.00
2019-03-06T19:17:09.450Z,14.10
2019-03-06T19:19:55.216Z,14.00
2019-03-06T19:22:45.061Z,14.10
2019-03-06T19:25:15.056Z,14.10
2019-03-06T19:27:44.409Z,14.10
2019-03-06T19:30:16.285Z,14.10
2019-03-06T19:32:45.782Z,14.10
2019-03-06T19:35:15.698Z,14.10
2019-03-06T19:37:45.418Z,14.10
2019-03-06T19:40:15.153Z,14.00
2019-03-06T19:42:44.598Z,14.00
2019-03-06T19:45:15.607Z,14.10
2019-03-06T19:47:44.939Z,14.10
2019-03-06T19:50:16.743Z,14.00
2019-03-06T19:52:46.174Z,14.10
2019-03-06T19:55:16.782Z,14.20
2019-03-06T19:57:51.150Z,14.30
2019-03-06T20:00:21.270Z,14.40
2019-03-06T20:02:50.674Z,14.40
2019-03-06T20:05:20.542Z,14.30
2019-03-06T20:07:51.938Z,14.20
2019-03-06T20:10:23.350Z,14.30
2019-03-06T20:12:54.209Z,14.20
2019-03-06T20:15:24.774Z,14.20
2019-03-06T20:17:54.067Z,14.30
2019-03-06T20:20:23.641Z,14.30
2019-03-06T20:22:53.354Z,14.30
2019-03-06T20:25:23.201Z,14.20
2019-03-06T20:27:53.483Z,14.20
2019-03-06T20:30:23.498Z,14.20
2019-03-06T20:32:53.783Z,14.10
2019-03-06T20:35:24.422Z,14.10
2019-03-06T20:37:53.892Z,14.10
2019-03-06T20:40:23.912Z,14.10
2019-03-06T20:42:55.357Z,14.10
2019-03-06T20:45:25.213Z,14.20
2019-03-06T20:47:54.633Z,14.10
2019-03-06T20:50:24.558Z,14.10
2019-03-06T20:52:55.412Z,14.00
2019-03-06T20:55:25.755Z,14.00
2019-03-06T20:57:55.728Z,14.00
2019-03-06T21:00:25.867Z,14.00
2019-03-06T21:02:55.832Z,14.00
2019-03-06T21:05:26.314Z,14.10
2019-03-06T21:07:56.653Z,14.10
2019-03-06T21:10:26.994Z,14.10
2019-03-06T21:12:57.725Z,15.30
2019-03-06T21:15:29.051Z,14.20
2019-03-06T21:17:59.248Z,14.20
2019-03-06T21:20:32.171Z,14.20
2019-03-06T21:23:09.367Z,14.10
2019-03-06T21:25:48.653Z,14.20
2019-03-06T21:28:19.231Z,14.20
2019-03-06T21:30:50.213Z,14.20
2019-03-06T21:33:22.061Z,14.20
2019-03-06T21:35:54.453Z,14.20
2019-03-06T21:38:24.378Z,14.20
2019-03-06T21:40:54.019Z,14.10
2019-03-06T21:43:23.578Z,14.10
2019-03-06T21:45:53.915Z,14.10
2019-03-06T21:48:23.476Z,14.10
2019-03-06T21:50:53.342Z,14.10
2019-03-06T21:53:23.198Z,14.10
2019-03-06T21:55:52.884Z,14.10
2019-03-06T21:58:22.521Z,14.10
2019-03-06T22:00:52.787Z,14.00
2019-03-06T22:03:24.979Z,14.00
2019-03-06T22:05:54.434Z,14.00
2019-03-06T22:08:23.909Z,14.00
2019-03-06T22:10:53.356Z,14.00
2019-03-06T22:13:23.115Z,14.00
2019-03-06T22:15:52.698Z,13.90
2019-03-06T22:18:31.492Z,13.90
2019-03-06T22:21:02.743Z,13.80
2019-03-06T22:23:32.474Z,13.70
2019-03-06T22:26:02.160Z,13.70
2019-03-06T22:28:31.796Z,13.60
2019-03-06T22:31:01.897Z,13.60
2019-03-06T22:33:31.557Z,13.50
2019-03-06T22:36:01.251Z,13.50
2019-03-06T22:38:30.769Z,13.60
2019-03-06T22:41:00.535Z,13.50
2019-03-06T22:43:30.190Z,13.50
2019-03-06T22:46:00.216Z,13.50
2019-03-06T22:48:30.314Z,13.60
2019-03-06T22:51:00.303Z,13.60
2019-03-06T22:53:30.506Z,13.60
2019-03-06T22:56:03.207Z,13.60
2019-03-06T22:58:33.992Z,13.50
2019-03-06T23:01:26.257Z,13.50
2019-03-06T23:03:56.543Z,13.50
2019-03-06T23:06:26.939Z,13.60
2019-03-06T23:08:56.669Z,13.60
2019-03-06T23:11:26.331Z,13.60
2019-03-06T23:13:56.219Z,13.60
2019-03-06T23:16:26.127Z,13.70
2019-03-06T23:18:56.094Z,13.70
2019-03-06T23:21:25.889Z,13.70
2019-03-06T23:23:55.804Z,13.70
2019-03-06T23:26:25.578Z,13.70
2019-03-06T23:28:55.541Z,13.70
2019-03-06T23:31:25.330Z,13.70
2019-03-06T23:34:04.274Z,13.60
2019-03-06T23:36:33.841Z,13.60
2019-03-06T23:39:04.018Z,13.60
2019-03-06T23:41:33.819Z,13.60
2019-03-06T23:44:04.279Z,13.50
2019-03-06T23:46:36.218Z,13.50
2019-03-06T23:49:26.382Z,13.50
2019-03-06T23:52:01.464Z,13.50
2019-03-06T23:54:46.445Z,13.40
